LFMH/EBU METAR and TAF weather

Enter ICAO airport designator
Station Type Date Time Source
LFMH METAR 2019/10/15 21:00 UTC NOAA

LFMH 152100Z AUTO 16005KT CAVOK 08/05 Q1018


Station Type Date Time Source
LFMH Decoded METAR 2019/10/15 21:00 UTC NOAA

St-Etienne Boutheon, France (LFMH) 45-32N 004-18E 402M
Oct 15, 2019 - 05:00 PM EDT / 2019.10.15 2100 UTC
Wind: from the SSE (160 degrees) at 6 MPH (5 KT):0
Visibility: greater than 7 mile(s):0
Temperature: 46 F (8 C)
Dew Point: 41 F (5 C)
Relative Humidity: 81%
Pressure (altimeter): 30.06 in. Hg (1018 hPa)
ob: LFMH 152100Z AUTO 16005KT CAVOK 08/05 Q1018
cycle: 21

Station Type Date Time Source
LFMH TAF 2019/10/15 19:09 UTC NOAA

TAF TAF LFMH 151903Z 1519/1615 CNL

Example: see airport list